KCLI

Clintonville Municipal Airport

Clintonville, Wisconsin, USA
METAR KCLI 190535Z AUTO 00000KT 10SM SCT018 OVC024 15/13 A3004 RMK AO2 T01530129
Observed Flight Rules
Sep-19 @ 05:35 UTC (8 minutes ago) Marginal Visual Flight Rules
Visibility Clouds
10 miles
  • Scattered at 1,800' AGL
  • Overcast at 2,400' AGL
Temperatures Readings
Current 15°C / 59°F
Dewpoint 13°C / 55°F
Humidity 88%
Altimeter 30.04" Hg
Pressure 1017 hPa
Elevation 250
METAR KCLI 190535Z AUTO 00000KT 10SM SCT018 OVC024 15/13 A3004 RMK AO2 T01530129
Observed Flight Rules
Sep-19 @ 05:35 UTC
(8 minutes ago)
MVFR
Clouds
  • Scattered at 1,800' AGL
  • Overcast at 2,400' AGL
Temperature Dewpoint
15°C / 59°F 13°C / 55°F
Humidity Altimeter Pressure
88% 30.04" Hg 1017 hPa